sensor_id;sensor_type;location;lat;lon;timestamp;P1;durP1;ratioP1;P2;durP2;ratioP2
55003;SDS011;40900;52.710;6.438;2022-12-29T00:02:14;7.15;;;5.72;;
55003;SDS011;40900;52.710;6.438;2022-12-29T00:04:40;6.53;;;5.40;;
55003;SDS011;40900;52.710;6.438;2022-12-29T00:07:07;11.38;;;5.70;;
55003;SDS011;40900;52.710;6.438;2022-12-29T00:09:33;6.82;;;5.55;;
55003;SDS011;40900;52.710;6.438;2022-12-29T00:11:59;6.07;;;5.47;;
55003;SDS011;40900;52.710;6.438;2022-12-29T00:14:26;6.60;;;5.75;;
55003;SDS011;40900;52.710;6.438;2022-12-29T00:17:11;9.77;;;6.00;;
55003;SDS011;40900;52.710;6.438;2022-12-29T00:19:37;9.35;;;5.97;;
55003;SDS011;40900;52.710;6.438;2022-12-29T00:22:22;5.90;;;5.00;;
55003;SDS011;40900;52.710;6.438;2022-12-29T00:25:10;6.70;;;5.20;;
55003;SDS011;40900;52.710;6.438;2022-12-29T00:27:55;6.28;;;5.28;;
55003;SDS011;40900;52.710;6.438;2022-12-29T00:30:40;6.00;;;5.15;;
55003;SDS011;40900;52.710;6.438;2022-12-29T00:33:26;7.60;;;4.90;;
55003;SDS011;40900;52.710;6.438;2022-12-29T00:36:19;6.13;;;4.57;;
55003;SDS011;40900;52.710;6.438;2022-12-29T00:38:47;5.75;;;4.70;;
55003;SDS011;40900;52.710;6.438;2022-12-29T00:41:34;6.30;;;4.60;;
55003;SDS011;40900;52.710;6.438;2022-12-29T00:44:19;7.07;;;4.28;;
55003;SDS011;40900;52.710;6.438;2022-12-29T00:46:45;4.97;;;4.15;;
55003;SDS011;40900;52.710;6.438;2022-12-29T00:49:11;6.43;;;4.30;;
55003;SDS011;40900;52.710;6.438;2022-12-29T00:52:03;6.55;;;4.57;;
55003;SDS011;40900;52.710;6.438;2022-12-29T00:54:30;6.78;;;4.40;;
55003;SDS011;40900;52.710;6.438;2022-12-29T00:56:56;7.93;;;4.45;;
55003;SDS011;40900;52.710;6.438;2022-12-29T00:59:22;4.50;;;3.90;;
55003;SDS011;40900;52.710;6.438;2022-12-29T01:01:49;5.38;;;3.85;;
55003;SDS011;40900;52.710;6.438;2022-12-29T01:04:16;4.18;;;3.70;;
55003;SDS011;40900;52.710;6.438;2022-12-29T01:06:42;5.63;;;3.85;;
55003;SDS011;40900;52.710;6.438;2022-12-29T01:09:08;5.38;;;3.47;;
55003;SDS011;40900;52.710;6.438;2022-12-29T01:11:53;6.28;;;3.58;;
55003;SDS011;40900;52.710;6.438;2022-12-29T01:14:20;4.80;;;3.60;;
55003;SDS011;40900;52.710;6.438;2022-12-29T01:16:46;4.38;;;3.30;;
55003;SDS011;40900;52.710;6.438;2022-12-29T01:19:15;5.55;;;3.58;;
55003;SDS011;40900;52.710;6.438;2022-12-29T01:21:41;4.50;;;3.45;;
55003;SDS011;40900;52.710;6.438;2022-12-29T01:24:08;4.65;;;3.28;;
55003;SDS011;40900;52.710;6.438;2022-12-29T01:26:34;4.25;;;3.35;;
55003;SDS011;40900;52.710;6.438;2022-12-29T01:29:00;4.78;;;3.40;;
55003;SDS011;40900;52.710;6.438;2022-12-29T01:31:26;4.07;;;3.30;;
55003;SDS011;40900;52.710;6.438;2022-12-29T01:33:52;7.10;;;3.40;;
55003;SDS011;40900;52.710;6.438;2022-12-29T01:36:18;4.78;;;3.08;;
55003;SDS011;40900;52.710;6.438;2022-12-29T01:38:44;3.55;;;3.22;;
55003;SDS011;40900;52.710;6.438;2022-12-29T01:41:12;4.88;;;3.38;;
55003;SDS011;40900;52.710;6.438;2022-12-29T01:43:39;4.75;;;3.00;;
55003;SDS011;40900;52.710;6.438;2022-12-29T01:46:07;5.10;;;3.40;;
55003;SDS011;40900;52.710;6.438;2022-12-29T01:48:37;3.30;;;2.70;;
55003;SDS011;40900;52.710;6.438;2022-12-29T01:51:03;5.05;;;2.67;;
55003;SDS011;40900;52.710;6.438;2022-12-29T01:53:30;3.85;;;2.67;;
55003;SDS011;40900;52.710;6.438;2022-12-29T01:55:59;3.97;;;3.00;;
55003;SDS011;40900;52.710;6.438;2022-12-29T01:58:28;3.47;;;2.95;;
55003;SDS011;40900;52.710;6.438;2022-12-29T02:00:55;4.40;;;2.92;;
55003;SDS011;40900;52.710;6.438;2022-12-29T02:03:21;3.85;;;2.70;;
55003;SDS011;40900;52.710;6.438;2022-12-29T02:05:50;5.35;;;2.63;;
55003;SDS011;40900;52.710;6.438;2022-12-29T02:08:17;4.57;;;3.08;;
55003;SDS011;40900;52.710;6.438;2022-12-29T02:10:44;3.53;;;2.75;;
55003;SDS011;40900;52.710;6.438;2022-12-29T02:13:10;3.95;;;3.10;;
55003;SDS011;40900;52.710;6.438;2022-12-29T02:18:35;5.60;;;2.80;;
55003;SDS011;40900;52.710;6.438;2022-12-29T02:21:18;4.97;;;2.90;;
55003;SDS011;40900;52.710;6.438;2022-12-29T02:26:29;3.67;;;2.80;;
55003;SDS011;40900;52.710;6.438;2022-12-29T02:32:05;6.20;;;3.00;;
55003;SDS011;40900;52.710;6.438;2022-12-29T02:34:47;4.88;;;3.35;;
55003;SDS011;40900;52.710;6.438;2022-12-29T02:42:47;6.00;;;3.80;;
55003;SDS011;40900;52.710;6.438;2022-12-29T02:45:19;5.18;;;3.00;;
55003;SDS011;40900;52.710;6.438;2022-12-29T02:47:56;5.47;;;3.10;;
55003;SDS011;40900;52.710;6.438;2022-12-29T02:50:31;4.88;;;2.80;;
55003;SDS011;40900;52.710;6.438;2022-12-29T02:52:59;4.53;;;2.88;;
55003;SDS011;40900;52.710;6.438;2022-12-29T02:55:25;3.78;;;3.00;;
55003;SDS011;40900;52.710;6.438;2022-12-29T03:00:37;4.95;;;2.65;;
55003;SDS011;40900;52.710;6.438;2022-12-29T03:11:01;2.72;;;2.20;;
55003;SDS011;40900;52.710;6.438;2022-12-29T03:21:55;3.57;;;2.30;;
55003;SDS011;40900;52.710;6.438;2022-12-29T03:24:41;2.65;;;2.05;;
55003;SDS011;40900;52.710;6.438;2022-12-29T03:27:08;4.28;;;2.08;;
55003;SDS011;40900;52.710;6.438;2022-12-29T03:29:38;3.20;;;1.85;;
55003;SDS011;40900;52.710;6.438;2022-12-29T03:32:05;3.97;;;2.00;;
55003;SDS011;40900;52.710;6.438;2022-12-29T03:34:32;5.07;;;2.20;;
55003;SDS011;40900;52.710;6.438;2022-12-29T03:37:10;4.43;;;2.00;;
55003;SDS011;40900;52.710;6.438;2022-12-29T03:39:37;6.10;;;1.90;;
55003;SDS011;40900;52.710;6.438;2022-12-29T03:42:05;6.00;;;1.80;;
55003;SDS011;40900;52.710;6.438;2022-12-29T03:44:36;4.65;;;1.95;;
55003;SDS011;40900;52.710;6.438;2022-12-29T03:47:02;4.30;;;1.98;;
55003;SDS011;40900;52.710;6.438;2022-12-29T03:49:29;3.88;;;1.40;;
55003;SDS011;40900;52.710;6.438;2022-12-29T03:51:55;10.63;;;2.15;;
55003;SDS011;40900;52.710;6.438;2022-12-29T03:54:21;5.63;;;2.30;;
55003;SDS011;40900;52.710;6.438;2022-12-29T03:56:47;6.22;;;1.83;;
55003;SDS011;40900;52.710;6.438;2022-12-29T03:59:13;5.60;;;1.75;;
55003;SDS011;40900;52.710;6.438;2022-12-29T04:01:39;6.22;;;1.98;;
55003;SDS011;40900;52.710;6.438;2022-12-29T04:04:06;7.03;;;1.80;;
55003;SDS011;40900;52.710;6.438;2022-12-29T04:06:32;7.18;;;1.90;;
55003;SDS011;40900;52.710;6.438;2022-12-29T04:08:58;5.95;;;1.65;;
55003;SDS011;40900;52.710;6.438;2022-12-29T04:11:24;4.80;;;1.60;;
55003;SDS011;40900;52.710;6.438;2022-12-29T04:13:50;4.20;;;1.30;;
55003;SDS011;40900;52.710;6.438;2022-12-29T04:16:16;2.47;;;1.10;;
55003;SDS011;40900;52.710;6.438;2022-12-29T04:18:42;6.32;;;1.42;;
55003;SDS011;40900;52.710;6.438;2022-12-29T04:21:08;7.18;;;1.85;;
55003;SDS011;40900;52.710;6.438;2022-12-29T04:23:35;3.58;;;1.40;;
55003;SDS011;40900;52.710;6.438;2022-12-29T04:26:02;5.60;;;1.25;;
55003;SDS011;40900;52.710;6.438;2022-12-29T04:28:28;5.70;;;1.55;;
55003;SDS011;40900;52.710;6.438;2022-12-29T04:30:54;7.30;;;2.00;;
55003;SDS011;40900;52.710;6.438;2022-12-29T04:33:20;4.93;;;1.67;;
55003;SDS011;40900;52.710;6.438;2022-12-29T04:35:47;7.00;;;1.60;;
55003;SDS011;40900;52.710;6.438;2022-12-29T04:38:13;10.43;;;1.92;;
55003;SDS011;40900;52.710;6.438;2022-12-29T04:40:40;6.03;;;1.60;;
55003;SDS011;40900;52.710;6.438;2022-12-29T04:43:07;9.02;;;1.75;;
55003;SDS011;40900;52.710;6.438;2022-12-29T04:45:33;6.63;;;1.85;;
55003;SDS011;40900;52.710;6.438;2022-12-29T04:47:59;9.02;;;1.77;;
55003;SDS011;40900;52.710;6.438;2022-12-29T04:50:25;7.43;;;1.75;;
55003;SDS011;40900;52.710;6.438;2022-12-29T04:52:51;6.45;;;1.58;;
55003;SDS011;40900;52.710;6.438;2022-12-29T04:55:17;7.03;;;1.92;;
55003;SDS011;40900;52.710;6.438;2022-12-29T04:57:43;8.95;;;1.85;;
55003;SDS011;40900;52.710;6.438;2022-12-29T05:00:10;5.95;;;1.60;;
55003;SDS011;40900;52.710;6.438;2022-12-29T05:02:37;5.63;;;1.80;;
55003;SDS011;40900;52.710;6.438;2022-12-29T05:05:03;7.35;;;1.80;;
55003;SDS011;40900;52.710;6.438;2022-12-29T05:07:29;9.88;;;1.77;;
55003;SDS011;40900;52.710;6.438;2022-12-29T05:09:58;6.47;;;1.45;;
55003;SDS011;40900;52.710;6.438;2022-12-29T05:12:24;5.50;;;1.60;;
55003;SDS011;40900;52.710;6.438;2022-12-29T05:14:50;6.43;;;1.77;;
55003;SDS011;40900;52.710;6.438;2022-12-29T05:17:16;7.15;;;1.42;;
55003;SDS011;40900;52.710;6.438;2022-12-29T05:19:42;6.82;;;1.40;;
55003;SDS011;40900;52.710;6.438;2022-12-29T05:22:08;5.78;;;1.67;;
55003;SDS011;40900;52.710;6.438;2022-12-29T05:24:34;6.80;;;2.08;;
55003;SDS011;40900;52.710;6.438;2022-12-29T05:27:00;3.70;;;1.27;;
55003;SDS011;40900;52.710;6.438;2022-12-29T05:29:26;6.75;;;1.80;;
55003;SDS011;40900;52.710;6.438;2022-12-29T05:31:53;7.68;;;1.52;;
55003;SDS011;40900;52.710;6.438;2022-12-29T05:34:19;7.47;;;1.75;;
55003;SDS011;40900;52.710;6.438;2022-12-29T05:36:45;5.13;;;1.75;;
55003;SDS011;40900;52.710;6.438;2022-12-29T05:39:11;6.30;;;1.75;;
55003;SDS011;40900;52.710;6.438;2022-12-29T05:41:37;5.93;;;1.80;;
55003;SDS011;40900;52.710;6.438;2022-12-29T05:44:03;7.55;;;2.20;;
55003;SDS011;40900;52.710;6.438;2022-12-29T05:46:29;4.40;;;1.30;;
55003;SDS011;40900;52.710;6.438;2022-12-29T05:48:55;5.72;;;1.70;;
55003;SDS011;40900;52.710;6.438;2022-12-29T05:51:22;6.95;;;1.80;;
55003;SDS011;40900;52.710;6.438;2022-12-29T05:53:48;5.60;;;1.40;;
55003;SDS011;40900;52.710;6.438;2022-12-29T05:56:14;6.50;;;1.70;;
55003;SDS011;40900;52.710;6.438;2022-12-29T05:58:40;9.55;;;2.00;;
55003;SDS011;40900;52.710;6.438;2022-12-29T06:01:06;12.00;;;1.90;;
55003;SDS011;40900;52.710;6.438;2022-12-29T06:03:32;10.00;;;2.60;;
55003;SDS011;40900;52.710;6.438;2022-12-29T06:05:58;10.93;;;1.50;;
55003;SDS011;40900;52.710;6.438;2022-12-29T06:08:24;10.18;;;2.28;;
55003;SDS011;40900;52.710;6.438;2022-12-29T06:10:50;12.73;;;2.33;;
55003;SDS011;40900;52.710;6.438;2022-12-29T06:13:16;9.73;;;2.30;;
55003;SDS011;40900;52.710;6.438;2022-12-29T06:15:42;14.85;;;2.30;;
55003;SDS011;40900;52.710;6.438;2022-12-29T06:18:08;13.32;;;2.58;;
55003;SDS011;40900;52.710;6.438;2022-12-29T06:20:35;8.05;;;1.98;;
55003;SDS011;40900;52.710;6.438;2022-12-29T06:23:01;10.70;;;1.85;;
55003;SDS011;40900;52.710;6.438;2022-12-29T06:25:27;7.95;;;1.67;;
55003;SDS011;40900;52.710;6.438;2022-12-29T06:27:55;10.15;;;2.05;;
55003;SDS011;40900;52.710;6.438;2022-12-29T06:30:21;12.27;;;3.10;;
55003;SDS011;40900;52.710;6.438;2022-12-29T06:32:47;8.50;;;1.80;;
55003;SDS011;40900;52.710;6.438;2022-12-29T06:35:14;7.07;;;1.80;;
55003;SDS011;40900;52.710;6.438;2022-12-29T06:37:40;11.48;;;2.30;;
55003;SDS011;40900;52.710;6.438;2022-12-29T06:40:06;10.77;;;2.15;;
55003;SDS011;40900;52.710;6.438;2022-12-29T06:42:32;8.55;;;2.22;;
55003;SDS011;40900;52.710;6.438;2022-12-29T06:44:58;10.80;;;1.98;;
55003;SDS011;40900;52.710;6.438;2022-12-29T06:47:25;10.88;;;2.08;;
55003;SDS011;40900;52.710;6.438;2022-12-29T06:49:51;11.80;;;2.20;;
55003;SDS011;40900;52.710;6.438;2022-12-29T06:52:17;9.27;;;2.05;;
55003;SDS011;40900;52.710;6.438;2022-12-29T06:54:43;11.98;;;2.30;;
55003;SDS011;40900;52.710;6.438;2022-12-29T06:57:10;9.57;;;2.28;;
55003;SDS011;40900;52.710;6.438;2022-12-29T06:59:36;15.35;;;2.25;;
55003;SDS011;40900;52.710;6.438;2022-12-29T07:02:02;15.82;;;2.67;;
55003;SDS011;40900;52.710;6.438;2022-12-29T07:04:28;8.68;;;2.28;;
55003;SDS011;40900;52.710;6.438;2022-12-29T07:06:54;13.88;;;3.78;;
55003;SDS011;40900;52.710;6.438;2022-12-29T07:09:20;12.38;;;2.20;;
55003;SDS011;40900;52.710;6.438;2022-12-29T07:11:46;12.02;;;2.88;;
55003;SDS011;40900;52.710;6.438;2022-12-29T07:14:12;16.38;;;2.70;;
55003;SDS011;40900;52.710;6.438;2022-12-29T07:16:38;15.13;;;2.22;;
55003;SDS011;40900;52.710;6.438;2022-12-29T07:19:04;11.25;;;2.63;;
55003;SDS011;40900;52.710;6.438;2022-12-29T07:21:31;12.80;;;2.20;;
55003;SDS011;40900;52.710;6.438;2022-12-29T07:23:57;15.57;;;3.10;;
55003;SDS011;40900;52.710;6.438;2022-12-29T07:26:23;12.57;;;2.55;;
55003;SDS011;40900;52.710;6.438;2022-12-29T07:28:49;12.18;;;2.33;;
55003;SDS011;40900;52.710;6.438;2022-12-29T07:31:17;10.95;;;2.80;;
55003;SDS011;40900;52.710;6.438;2022-12-29T07:33:43;13.35;;;2.63;;
55003;SDS011;40900;52.710;6.438;2022-12-29T07:36:10;12.25;;;2.55;;
55003;SDS011;40900;52.710;6.438;2022-12-29T07:38:36;9.48;;;2.60;;
55003;SDS011;40900;52.710;6.438;2022-12-29T07:41:02;8.77;;;2.80;;
55003;SDS011;40900;52.710;6.438;2022-12-29T07:43:28;15.02;;;3.08;;
55003;SDS011;40900;52.710;6.438;2022-12-29T07:45:54;13.35;;;2.70;;
55003;SDS011;40900;52.710;6.438;2022-12-29T07:48:20;10.57;;;2.92;;
55003;SDS011;40900;52.710;6.438;2022-12-29T07:50:46;14.00;;;3.05;;
55003;SDS011;40900;52.710;6.438;2022-12-29T07:53:12;16.17;;;3.47;;
55003;SDS011;40900;52.710;6.438;2022-12-29T07:55:39;12.60;;;2.95;;
55003;SDS011;40900;52.710;6.438;2022-12-29T07:58:05;13.68;;;2.92;;
55003;SDS011;40900;52.710;6.438;2022-12-29T08:00:31;10.93;;;2.75;;
55003;SDS011;40900;52.710;6.438;2022-12-29T08:02:57;17.85;;;3.60;;
55003;SDS011;40900;52.710;6.438;2022-12-29T08:05:23;14.90;;;2.83;;
55003;SDS011;40900;52.710;6.438;2022-12-29T08:07:50;15.80;;;3.08;;
55003;SDS011;40900;52.710;6.438;2022-12-29T08:10:16;11.38;;;2.30;;
55003;SDS011;40900;52.710;6.438;2022-12-29T08:12:42;19.45;;;3.17;;
55003;SDS011;40900;52.710;6.438;2022-12-29T08:15:09;18.98;;;3.45;;
55003;SDS011;40900;52.710;6.438;2022-12-29T08:17:35;15.98;;;3.88;;
55003;SDS011;40900;52.710;6.438;2022-12-29T08:20:02;16.75;;;3.40;;
55003;SDS011;40900;52.710;6.438;2022-12-29T08:22:28;17.00;;;3.05;;
55003;SDS011;40900;52.710;6.438;2022-12-29T08:24:54;18.60;;;3.30;;
55003;SDS011;40900;52.710;6.438;2022-12-29T08:27:21;14.95;;;2.90;;
55003;SDS011;40900;52.710;6.438;2022-12-29T08:29:47;19.75;;;3.08;;
55003;SDS011;40900;52.710;6.438;2022-12-29T08:32:14;12.00;;;2.75;;
55003;SDS011;40900;52.710;6.438;2022-12-29T08:34:40;17.90;;;3.58;;
55003;SDS011;40900;52.710;6.438;2022-12-29T08:37:06;12.95;;;2.60;;
55003;SDS011;40900;52.710;6.438;2022-12-29T08:39:32;15.70;;;3.05;;
55003;SDS011;40900;52.710;6.438;2022-12-29T08:41:58;14.32;;;2.53;;
55003;SDS011;40900;52.710;6.438;2022-12-29T08:44:25;14.45;;;2.85;;
55003;SDS011;40900;52.710;6.438;2022-12-29T08:46:51;12.63;;;3.22;;
55003;SDS011;40900;52.710;6.438;2022-12-29T08:49:17;14.85;;;2.47;;
55003;SDS011;40900;52.710;6.438;2022-12-29T08:51:43;14.25;;;2.63;;
55003;SDS011;40900;52.710;6.438;2022-12-29T08:54:09;11.13;;;2.65;;
55003;SDS011;40900;52.710;6.438;2022-12-29T08:56:35;11.50;;;2.45;;
55003;SDS011;40900;52.710;6.438;2022-12-29T08:59:01;20.67;;;2.97;;
55003;SDS011;40900;52.710;6.438;2022-12-29T09:01:27;15.10;;;2.97;;
55003;SDS011;40900;52.710;6.438;2022-12-29T09:03:55;10.52;;;2.63;;
55003;SDS011;40900;52.710;6.438;2022-12-29T09:06:21;10.23;;;2.22;;
55003;SDS011;40900;52.710;6.438;2022-12-29T09:08:47;18.25;;;3.92;;
55003;SDS011;40900;52.710;6.438;2022-12-29T09:13:39;12.27;;;2.33;;
55003;SDS011;40900;52.710;6.438;2022-12-29T09:16:06;10.65;;;2.08;;
55003;SDS011;40900;52.710;6.438;2022-12-29T09:18:32;13.90;;;2.92;;
55003;SDS011;40900;52.710;6.438;2022-12-29T09:20:59;15.30;;;2.53;;
55003;SDS011;40900;52.710;6.438;2022-12-29T09:23:25;15.63;;;2.70;;
55003;SDS011;40900;52.710;6.438;2022-12-29T09:25:52;13.88;;;2.72;;
55003;SDS011;40900;52.710;6.438;2022-12-29T09:28:18;13.95;;;3.53;;
55003;SDS011;40900;52.710;6.438;2022-12-29T09:30:44;12.60;;;2.50;;
55003;SDS011;40900;52.710;6.438;2022-12-29T09:33:10;14.75;;;2.72;;
55003;SDS011;40900;52.710;6.438;2022-12-29T09:35:36;12.02;;;2.90;;
55003;SDS011;40900;52.710;6.438;2022-12-29T09:38:02;10.93;;;2.20;;
55003;SDS011;40900;52.710;6.438;2022-12-29T09:40:30;11.50;;;3.03;;
55003;SDS011;40900;52.710;6.438;2022-12-29T09:45:44;15.40;;;3.50;;
55003;SDS011;40900;52.710;6.438;2022-12-29T09:48:13;11.00;;;2.72;;
55003;SDS011;40900;52.710;6.438;2022-12-29T09:50:40;15.32;;;3.17;;
55003;SDS011;40900;52.710;6.438;2022-12-29T09:55:38;17.08;;;3.08;;
55003;SDS011;40900;52.710;6.438;2022-12-29T09:58:06;19.23;;;3.67;;
55003;SDS011;40900;52.710;6.438;2022-12-29T10:00:36;11.50;;;2.90;;
55003;SDS011;40900;52.710;6.438;2022-12-29T10:03:05;16.02;;;2.95;;
55003;SDS011;40900;52.710;6.438;2022-12-29T10:05:37;11.98;;;2.80;;
55003;SDS011;40900;52.710;6.438;2022-12-29T10:10:43;15.98;;;2.83;;
55003;SDS011;40900;52.710;6.438;2022-12-29T10:16:25;14.20;;;2.60;;
55003;SDS011;40900;52.710;6.438;2022-12-29T10:23:53;15.45;;;3.05;;
55003;SDS011;40900;52.710;6.438;2022-12-29T10:26:39;15.55;;;2.88;;
55003;SDS011;40900;52.710;6.438;2022-12-29T10:29:08;12.75;;;2.40;;
55003;SDS011;40900;52.710;6.438;2022-12-29T10:31:38;11.25;;;2.47;;
55003;SDS011;40900;52.710;6.438;2022-12-29T10:34:10;16.45;;;3.80;;
55003;SDS011;40900;52.710;6.438;2022-12-29T10:36:43;13.85;;;2.83;;
55003;SDS011;40900;52.710;6.438;2022-12-29T10:39:21;11.43;;;2.70;;
55003;SDS011;40900;52.710;6.438;2022-12-29T10:44:14;15.43;;;2.75;;
55003;SDS011;40900;52.710;6.438;2022-12-29T10:46:41;16.00;;;3.00;;
55003;SDS011;40900;52.710;6.438;2022-12-29T10:49:14;12.65;;;2.60;;
55003;SDS011;40900;52.710;6.438;2022-12-29T10:51:42;9.82;;;2.08;;
55003;SDS011;40900;52.710;6.438;2022-12-29T10:57:08;9.40;;;2.50;;
55003;SDS011;40900;52.710;6.438;2022-12-29T10:59:36;7.53;;;2.00;;
55003;SDS011;40900;52.710;6.438;2022-12-29T11:07:25;7.63;;;2.47;;
55003;SDS011;40900;52.710;6.438;2022-12-29T11:09:51;11.32;;;2.33;;
55003;SDS011;40900;52.710;6.438;2022-12-29T11:12:25;12.23;;;1.90;;
55003;SDS011;40900;52.710;6.438;2022-12-29T11:15:02;12.13;;;2.47;;
55003;SDS011;40900;52.710;6.438;2022-12-29T11:20:34;13.30;;;2.80;;
55003;SDS011;40900;52.710;6.438;2022-12-29T11:23:02;13.63;;;3.08;;
55003;SDS011;40900;52.710;6.438;2022-12-29T11:25:29;14.23;;;3.15;;
55003;SDS011;40900;52.710;6.438;2022-12-29T11:27:56;15.50;;;3.38;;
55003;SDS011;40900;52.710;6.438;2022-12-29T11:30:23;14.18;;;3.38;;
55003;SDS011;40900;52.710;6.438;2022-12-29T11:32:51;15.63;;;3.83;;
55003;SDS011;40900;52.710;6.438;2022-12-29T11:37:56;14.90;;;3.83;;
55003;SDS011;40900;52.710;6.438;2022-12-29T11:40:23;19.42;;;2.85;;
55003;SDS011;40900;52.710;6.438;2022-12-29T11:42:56;18.23;;;3.70;;
55003;SDS011;40900;52.710;6.438;2022-12-29T11:45:23;17.40;;;4.25;;
55003;SDS011;40900;52.710;6.438;2022-12-29T11:47:54;19.27;;;3.25;;
55003;SDS011;40900;52.710;6.438;2022-12-29T11:50:25;12.82;;;3.28;;
55003;SDS011;40900;52.710;6.438;2022-12-29T11:52:57;17.23;;;3.25;;
55003;SDS011;40900;52.710;6.438;2022-12-29T11:55:24;16.38;;;3.33;;
55003;SDS011;40900;52.710;6.438;2022-12-29T11:57:51;15.88;;;3.20;;
55003;SDS011;40900;52.710;6.438;2022-12-29T12:00:19;17.13;;;3.72;;
55003;SDS011;40900;52.710;6.438;2022-12-29T12:03:03;16.95;;;3.47;;
55003;SDS011;40900;52.710;6.438;2022-12-29T12:05:32;21.40;;;3.30;;
55003;SDS011;40900;52.710;6.438;2022-12-29T12:10:31;20.95;;;3.40;;
55003;SDS011;40900;52.710;6.438;2022-12-29T12:13:06;23.60;;;4.10;;
55003;SDS011;40900;52.710;6.438;2022-12-29T12:15:39;17.08;;;3.40;;
55003;SDS011;40900;52.710;6.438;2022-12-29T12:21:05;18.35;;;3.15;;
55003;SDS011;40900;52.710;6.438;2022-12-29T12:26:16;11.35;;;2.45;;
55003;SDS011;40900;52.710;6.438;2022-12-29T12:28:52;15.60;;;2.85;;
55003;SDS011;40900;52.710;6.438;2022-12-29T12:31:26;16.70;;;4.00;;
55003;SDS011;40900;52.710;6.438;2022-12-29T12:33:56;24.70;;;4.32;;
55003;SDS011;40900;52.710;6.438;2022-12-29T12:36:30;25.67;;;4.38;;
55003;SDS011;40900;52.710;6.438;2022-12-29T12:39:12;18.08;;;4.05;;
55003;SDS011;40900;52.710;6.438;2022-12-29T12:41:47;24.63;;;4.97;;
55003;SDS011;40900;52.710;6.438;2022-12-29T12:44:20;22.35;;;4.13;;
55003;SDS011;40900;52.710;6.438;2022-12-29T13:12:55;22.52;;;4.68;;
55003;SDS011;40900;52.710;6.438;2022-12-29T13:20:36;21.17;;;3.42;;
55003;SDS011;40900;52.710;6.438;2022-12-29T13:23:12;16.83;;;3.03;;
55003;SDS011;40900;52.710;6.438;2022-12-29T13:25:47;18.13;;;4.07;;
55003;SDS011;40900;52.710;6.438;2022-12-29T13:28:22;11.85;;;2.78;;
55003;SDS011;40900;52.710;6.438;2022-12-29T13:30:57;21.38;;;4.57;;
55003;SDS011;40900;52.710;6.438;2022-12-29T13:34:10;19.02;;;3.58;;
55003;SDS011;40900;52.710;6.438;2022-12-29T13:41:48;21.98;;;3.75;;
55003;SDS011;40900;52.710;6.438;2022-12-29T13:44:17;18.10;;;3.38;;
55003;SDS011;40900;52.710;6.438;2022-12-29T13:46:44;25.67;;;5.43;;
55003;SDS011;40900;52.710;6.438;2022-12-29T13:51:38;24.42;;;4.00;;
55003;SDS011;40900;52.710;6.438;2022-12-29T13:54:12;19.65;;;4.00;;
55003;SDS011;40900;52.710;6.438;2022-12-29T14:02:15;20.67;;;3.67;;
55003;SDS011;40900;52.710;6.438;2022-12-29T14:05:05;26.27;;;4.22;;
55003;SDS011;40900;52.710;6.438;2022-12-29T14:07:37;18.98;;;3.88;;
55003;SDS011;40900;52.710;6.438;2022-12-29T14:10:04;23.38;;;4.05;;
55003;SDS011;40900;52.710;6.438;2022-12-29T14:15:12;17.30;;;3.28;;
55003;SDS011;40900;52.710;6.438;2022-12-29T14:17:40;21.42;;;3.92;;
55003;SDS011;40900;52.710;6.438;2022-12-29T14:20:16;23.33;;;4.03;;
55003;SDS011;40900;52.710;6.438;2022-12-29T14:22:56;17.13;;;3.58;;
55003;SDS011;40900;52.710;6.438;2022-12-29T14:28:19;21.85;;;4.53;;
55003;SDS011;40900;52.710;6.438;2022-12-29T14:30:49;17.17;;;3.83;;
55003;SDS011;40900;52.710;6.438;2022-12-29T14:33:16;18.73;;;3.53;;
55003;SDS011;40900;52.710;6.438;2022-12-29T14:35:44;15.35;;;3.55;;
55003;SDS011;40900;52.710;6.438;2022-12-29T14:38:15;19.17;;;3.33;;
55003;SDS011;40900;52.710;6.438;2022-12-29T14:40:42;16.38;;;3.00;;
55003;SDS011;40900;52.710;6.438;2022-12-29T14:43:12;19.75;;;3.47;;
55003;SDS011;40900;52.710;6.438;2022-12-29T14:45:39;17.83;;;3.80;;
55003;SDS011;40900;52.710;6.438;2022-12-29T14:48:27;17.20;;;3.83;;
55003;SDS011;40900;52.710;6.438;2022-12-29T14:50:55;20.88;;;3.55;;
55003;SDS011;40900;52.710;6.438;2022-12-29T14:56:23;18.63;;;4.20;;
55003;SDS011;40900;52.710;6.438;2022-12-29T14:58:54;13.75;;;3.28;;
55003;SDS011;40900;52.710;6.438;2022-12-29T15:03:54;16.85;;;3.78;;
55003;SDS011;40900;52.710;6.438;2022-12-29T15:06:21;15.68;;;3.65;;
55003;SDS011;40900;52.710;6.438;2022-12-29T15:11:26;17.70;;;3.97;;
55003;SDS011;40900;52.710;6.438;2022-12-29T15:13:55;18.40;;;4.13;;
55003;SDS011;40900;52.710;6.438;2022-12-29T15:16:25;15.20;;;3.60;;
55003;SDS011;40900;52.710;6.438;2022-12-29T15:18:54;20.60;;;3.65;;
55003;SDS011;40900;52.710;6.438;2022-12-29T15:21:23;21.27;;;4.07;;
55003;SDS011;40900;52.710;6.438;2022-12-29T15:23:49;15.82;;;3.25;;
55003;SDS011;40900;52.710;6.438;2022-12-29T15:26:16;20.10;;;3.42;;
55003;SDS011;40900;52.710;6.438;2022-12-29T15:28:47;18.88;;;3.67;;
55003;SDS011;40900;52.710;6.438;2022-12-29T15:33:40;16.67;;;3.25;;
55003;SDS011;40900;52.710;6.438;2022-12-29T15:36:14;20.75;;;4.00;;
55003;SDS011;40900;52.710;6.438;2022-12-29T15:38:44;19.73;;;3.53;;
55003;SDS011;40900;52.710;6.438;2022-12-29T15:43:50;20.35;;;2.83;;
55003;SDS011;40900;52.710;6.438;2022-12-29T15:46:18;18.95;;;3.50;;
55003;SDS011;40900;52.710;6.438;2022-12-29T15:48:45;18.42;;;3.35;;
55003;SDS011;40900;52.710;6.438;2022-12-29T15:51:18;15.23;;;2.97;;
55003;SDS011;40900;52.710;6.438;2022-12-29T15:53:48;10.77;;;3.17;;
55003;SDS011;40900;52.710;6.438;2022-12-29T15:56:15;12.90;;;3.05;;
55003;SDS011;40900;52.710;6.438;2022-12-29T15:58:43;11.73;;;3.00;;
55003;SDS011;40900;52.710;6.438;2022-12-29T16:01:16;10.13;;;2.97;;
55003;SDS011;40900;52.710;6.438;2022-12-29T16:03:43;12.45;;;3.45;;
55003;SDS011;40900;52.710;6.438;2022-12-29T16:06:32;15.27;;;3.38;;
55003;SDS011;40900;52.710;6.438;2022-12-29T16:09:06;9.65;;;2.78;;
55003;SDS011;40900;52.710;6.438;2022-12-29T16:11:34;14.40;;;3.30;;
55003;SDS011;40900;52.710;6.438;2022-12-29T16:14:01;10.40;;;2.67;;
55003;SDS011;40900;52.710;6.438;2022-12-29T16:16:29;12.30;;;2.60;;
55003;SDS011;40900;52.710;6.438;2022-12-29T16:18:57;5.38;;;2.00;;
55003;SDS011;40900;52.710;6.438;2022-12-29T16:21:32;7.70;;;2.08;;
55003;SDS011;40900;52.710;6.438;2022-12-29T16:26:25;12.38;;;3.00;;
55003;SDS011;40900;52.710;6.438;2022-12-29T16:28:54;8.10;;;1.98;;
55003;SDS011;40900;52.710;6.438;2022-12-29T16:33:48;12.05;;;2.60;;
55003;SDS011;40900;52.710;6.438;2022-12-29T16:36:21;9.38;;;3.00;;
55003;SDS011;40900;52.710;6.438;2022-12-29T16:38:48;9.80;;;2.72;;
55003;SDS011;40900;52.710;6.438;2022-12-29T16:41:35;12.30;;;2.95;;
55003;SDS011;40900;52.710;6.438;2022-12-29T16:46:42;9.10;;;2.50;;
55003;SDS011;40900;52.710;6.438;2022-12-29T16:49:13;7.30;;;2.13;;
55003;SDS011;40900;52.710;6.438;2022-12-29T16:51:40;14.93;;;2.38;;
55003;SDS011;40900;52.710;6.438;2022-12-29T16:54:13;9.20;;;2.20;;
55003;SDS011;40900;52.710;6.438;2022-12-29T16:56:45;10.80;;;2.60;;
55003;SDS011;40900;52.710;6.438;2022-12-29T17:01:40;12.05;;;3.78;;
55003;SDS011;40900;52.710;6.438;2022-12-29T17:04:10;10.07;;;3.88;;
55003;SDS011;40900;52.710;6.438;2022-12-29T17:06:37;12.05;;;3.25;;
55003;SDS011;40900;52.710;6.438;2022-12-29T17:09:15;14.88;;;3.58;;
55003;SDS011;40900;52.710;6.438;2022-12-29T17:11:41;11.00;;;3.50;;
55003;SDS011;40900;52.710;6.438;2022-12-29T17:14:34;17.40;;;3.60;;
55003;SDS011;40900;52.710;6.438;2022-12-29T17:17:01;13.70;;;3.72;;
55003;SDS011;40900;52.710;6.438;2022-12-29T17:19:29;12.82;;;3.83;;
55003;SDS011;40900;52.710;6.438;2022-12-29T17:21:56;11.23;;;3.47;;